METAR Data
IDs: Format: Raw Decoded Include TAF

Data at: 0200 UTC 24 Oct 2019

METAR for:KFOD (Fort Dodge Rgnl, IA, US)
Text:KFOD 240156Z AUTO 30004KT 10SM OVC046 04/03 A3012 RMK AO2 SLP237 T00390028 $
Temperature: 3.9°C ( 39°F)
Dewpoint: 2.8°C ( 37°F) [RH = 93%]
Pressure (altimeter):30.12 inches Hg (1020.1 mb) [Sea level pressure: 1023.7 mb]
Winds:from the WNW (300 degrees) at 5 MPH (4 knots; 2.1 m/s)
Visibility:10 or more sm (16+ km)
Ceiling:4600 feet AGL
Clouds: overcast cloud deck at 4600 feet AGL
QC Flag:automated observation with no human augmentation; SOME DATA ABOVE MAY BE INACCURATE!!!"$" is an indication the sensor requires maintenance.